SWR233 LFPG-LSZH
Flight info
| Callsign | SWR233 |
|---|---|
| Flight time | 0h 45m |
| Altitude | 33000 |
| Route | BUBLI DCT LUVAL DCT OKIPO DCT PEVIT DCT BLM |
| Aircraft | A320/M-SDE3FGHIRWY/LB1 |
Departure
| Time | 2026-04-26 06:29 |
|---|---|
| Airport | Charles de Gaulle International Airport (LFPG) |
Arrival
| Time | 2026-04-26 07:14 |
|---|---|
| Airport | Zürich Airport (LSZH) |
| Time | Latitude | Longitude | Altitude | Speed | Heading |
|---|---|---|---|---|---|
| 2026-04-26 05:53 | 49.01610 | 2.54039 | 354 ft | 0 kts | 332° |
| 2026-04-26 06:15 | 49.01607 | 2.54041 | 354 ft | 3 kts | 332° |
| 2026-04-26 06:16 | 49.01586 | 2.54064 | 364 ft | 4 kts | 312° |
| 2026-04-26 06:16 | 49.01571 | 2.54097 | 359 ft | 4 kts | 289° |
| 2026-04-26 06:16 | 49.01567 | 2.54136 | 357 ft | 4 kts | 261° |
| 2026-04-26 06:16 | 49.01568 | 2.54144 | 356 ft | 0 kts | 257° |
| 2026-04-26 06:22 | 49.01563 | 2.54121 | 360 ft | 6 kts | 252° |
| 2026-04-26 06:23 | 49.01538 | 2.54058 | 354 ft | 8 kts | 229° |
| 2026-04-26 06:23 | 49.01493 | 2.54004 | 359 ft | 8 kts | 206° |
| 2026-04-26 06:23 | 49.01396 | 2.54003 | 359 ft | 17 kts | 159° |
| 2026-04-26 06:23 | 49.01291 | 2.54088 | 352 ft | 18 kts | 163° |
| 2026-04-26 06:24 | 49.01195 | 2.54035 | 357 ft | 13 kts | 231° |
| 2026-04-26 06:24 | 49.01176 | 2.53880 | 354 ft | 19 kts | 268° |
| 2026-04-26 06:24 | 49.01225 | 2.53704 | 354 ft | 19 kts | 322° |
| 2026-04-26 06:24 | 49.01352 | 2.53624 | 359 ft | 21 kts | 345° |
| 2026-04-26 06:25 | 49.01491 | 2.53609 | 354 ft | 19 kts | 4° |
| 2026-04-26 06:25 | 49.01629 | 2.53598 | 354 ft | 21 kts | 355° |
| 2026-04-26 06:25 | 49.01772 | 2.53580 | 354 ft | 21 kts | 355° |
| 2026-04-26 06:25 | 49.01865 | 2.53502 | 361 ft | 15 kts | 276° |
| 2026-04-26 06:26 | 49.01854 | 2.53356 | 354 ft | 13 kts | 264° |
| 2026-04-26 06:26 | 49.01848 | 2.53227 | 355 ft | 12 kts | 267° |
| 2026-04-26 06:26 | 49.01841 | 2.53042 | 354 ft | 20 kts | 265° |
| 2026-04-26 06:26 | 49.01831 | 2.52845 | 354 ft | 19 kts | 265° |
| 2026-04-26 06:27 | 49.01820 | 2.52644 | 354 ft | 20 kts | 265° |
| 2026-04-26 06:27 | 49.01811 | 2.52430 | 354 ft | 21 kts | 271° |
| 2026-04-26 06:27 | 49.01921 | 2.52347 | 354 ft | 20 kts | 354° |
| 2026-04-26 06:27 | 49.02060 | 2.52335 | 356 ft | 20 kts | 359° |
| 2026-04-26 06:28 | 49.02128 | 2.52458 | 356 ft | 17 kts | 84° |
| 2026-04-26 06:28 | 49.02128 | 2.52476 | 356 ft | 0 kts | 88° |
| 2026-04-26 06:28 | 49.02131 | 2.52545 | 356 ft | 26 kts | 85° |
| 2026-04-26 06:28 | 49.02171 | 2.53248 | 354 ft | 103 kts | 85° |
| 2026-04-26 06:29 | 49.02247 | 2.54645 | 366 ft | 158 kts | 82° |
| 2026-04-26 06:29 | 49.02356 | 2.56348 | 974 ft | 162 kts | 82° |
| 2026-04-26 06:29 | 49.02465 | 2.58090 | 1735 ft | 168 kts | 84° |
| 2026-04-26 06:29 | 49.02566 | 2.59894 | 2410 ft | 174 kts | 85° |
| 2026-04-26 06:30 | 49.02660 | 2.61766 | 3066 ft | 181 kts | 85° |
| 2026-04-26 06:30 | 49.02757 | 2.63776 | 3486 ft | 202 kts | 84° |
| 2026-04-26 06:30 | 49.02866 | 2.65999 | 3870 ft | 225 kts | 85° |
| 2026-04-26 06:30 | 49.02989 | 2.68498 | 4322 ft | 249 kts | 84° |
| 2026-04-26 06:31 | 49.03126 | 2.71196 | 5089 ft | 261 kts | 84° |
| 2026-04-26 06:31 | 49.03265 | 2.73987 | 6007 ft | 266 kts | 84° |
| 2026-04-26 06:31 | 49.03398 | 2.76752 | 6897 ft | 272 kts | 84° |
| 2026-04-26 06:31 | 49.03539 | 2.79740 | 7822 ft | 276 kts | 85° |
| 2026-04-26 06:32 | 49.03676 | 2.82683 | 8703 ft | 281 kts | 85° |
| 2026-04-26 06:32 | 49.03817 | 2.85676 | 9600 ft | 286 kts | 85° |
| 2026-04-26 06:32 | 49.03964 | 2.88721 | 10430 ft | 293 kts | 84° |
| 2026-04-26 06:32 | 49.04122 | 2.91956 | 10755 ft | 317 kts | 84° |
| 2026-04-26 06:33 | 49.04058 | 2.95348 | 11302 ft | 331 kts | 101° |
| 2026-04-26 06:33 | 49.03219 | 2.98647 | 12029 ft | 338 kts | 119° |
| 2026-04-26 06:33 | 49.02020 | 3.01767 | 12842 ft | 343 kts | 120° |
| 2026-04-26 06:33 | 49.00792 | 3.04918 | 13633 ft | 347 kts | 120° |
| 2026-04-26 06:34 | 48.99544 | 3.08100 | 14370 ft | 352 kts | 120° |
| 2026-04-26 06:34 | 48.98279 | 3.11328 | 15025 ft | 357 kts | 120° |
| 2026-04-26 06:34 | 48.96997 | 3.14598 | 15707 ft | 362 kts | 120° |
| 2026-04-26 06:34 | 48.95700 | 3.17913 | 16383 ft | 366 kts | 120° |
| 2026-04-26 06:35 | 48.94385 | 3.21271 | 17057 ft | 370 kts | 120° |
| 2026-04-26 06:35 | 48.93057 | 3.24662 | 17736 ft | 375 kts | 120° |
| 2026-04-26 06:35 | 48.91718 | 3.28082 | 18404 ft | 379 kts | 120° |
| 2026-04-26 06:35 | 48.90360 | 3.31547 | 18995 ft | 383 kts | 120° |
| 2026-04-26 06:36 | 48.89004 | 3.35004 | 19551 ft | 387 kts | 120° |
| 2026-04-26 06:36 | 48.87595 | 3.38580 | 20128 ft | 392 kts | 120° |
| 2026-04-26 06:36 | 48.86204 | 3.42096 | 20674 ft | 396 kts | 120° |
| 2026-04-26 06:36 | 48.84774 | 3.45704 | 21220 ft | 400 kts | 120° |
| 2026-04-26 06:37 | 48.83330 | 3.49349 | 21783 ft | 405 kts | 120° |
| 2026-04-26 06:37 | 48.82018 | 3.53159 | 22331 ft | 408 kts | 111° |
| 2026-04-26 06:37 | 48.81147 | 3.57261 | 22895 ft | 410 kts | 100° |
| 2026-04-26 06:37 | 48.80733 | 3.61544 | 23454 ft | 412 kts | 92° |
| 2026-04-26 06:38 | 48.80462 | 3.65833 | 23982 ft | 415 kts | 92° |
| 2026-04-26 06:38 | 48.80183 | 3.70210 | 24458 ft | 418 kts | 93° |
| 2026-04-26 06:38 | 48.79898 | 3.74621 | 24934 ft | 421 kts | 93° |
| 2026-04-26 06:38 | 48.79605 | 3.79050 | 25403 ft | 424 kts | 93° |
| 2026-04-26 06:39 | 48.79305 | 3.83506 | 25869 ft | 426 kts | 93° |
| 2026-04-26 06:39 | 48.79002 | 3.87992 | 26321 ft | 428 kts | 93° |
| 2026-04-26 06:39 | 48.78698 | 3.92496 | 26758 ft | 431 kts | 93° |
| 2026-04-26 06:39 | 48.78391 | 3.97035 | 27184 ft | 433 kts | 93° |
| 2026-04-26 06:40 | 48.78081 | 4.01601 | 27600 ft | 436 kts | 93° |
| 2026-04-26 06:40 | 48.77769 | 4.06183 | 28013 ft | 438 kts | 93° |
| 2026-04-26 06:40 | 48.77328 | 4.10775 | 28417 ft | 443 kts | 101° |
| 2026-04-26 06:40 | 48.76414 | 4.15247 | 28812 ft | 447 kts | 110° |
| 2026-04-26 06:41 | 48.75015 | 4.19482 | 29201 ft | 452 kts | 120° |
| 2026-04-26 06:41 | 48.73235 | 4.23420 | 29610 ft | 455 kts | 124° |
| 2026-04-26 06:41 | 48.71395 | 4.27329 | 29988 ft | 457 kts | 124° |
| 2026-04-26 06:41 | 48.69545 | 4.31252 | 30349 ft | 459 kts | 124° |
| 2026-04-26 06:42 | 48.67677 | 4.35200 | 30661 ft | 461 kts | 125° |
| 2026-04-26 06:42 | 48.65813 | 4.39145 | 31003 ft | 462 kts | 125° |
| 2026-04-26 06:42 | 48.63969 | 4.43054 | 31312 ft | 463 kts | 125° |
| 2026-04-26 06:42 | 48.62095 | 4.47035 | 31610 ft | 465 kts | 125° |
| 2026-04-26 06:43 | 48.60217 | 4.51015 | 31894 ft | 466 kts | 125° |
| 2026-04-26 06:43 | 48.58333 | 4.54997 | 32271 ft | 465 kts | 126° |
| 2026-04-26 06:43 | 48.56452 | 4.58968 | 32665 ft | 464 kts | 126° |
| 2026-04-26 06:43 | 48.54569 | 4.62939 | 33061 ft | 462 kts | 126° |
| 2026-04-26 06:44 | 48.52694 | 4.66882 | 33218 ft | 460 kts | 126° |
| 2026-04-26 06:44 | 48.50853 | 4.70741 | 33237 ft | 445 kts | 126° |
| 2026-04-26 06:44 | 48.49058 | 4.74493 | 33236 ft | 438 kts | 126° |
| 2026-04-26 06:45 | 48.45542 | 4.81834 | 33236 ft | 433 kts | 126° |
| 2026-04-26 06:45 | 48.42018 | 4.89170 | 33231 ft | 432 kts | 126° |
| 2026-04-26 06:46 | 48.38495 | 4.96502 | 33230 ft | 432 kts | 126° |
| 2026-04-26 06:46 | 48.34972 | 5.03833 | 33224 ft | 432 kts | 126° |
| 2026-04-26 06:47 | 48.31433 | 5.11145 | 33221 ft | 432 kts | 126° |
| 2026-04-26 06:47 | 48.27870 | 5.18408 | 33231 ft | 431 kts | 128° |
| 2026-04-26 06:48 | 48.24169 | 5.25416 | 33233 ft | 430 kts | 130° |
| 2026-04-26 06:48 | 48.20394 | 5.32368 | 33233 ft | 430 kts | 130° |
| 2026-04-26 06:49 | 48.16635 | 5.39337 | 33233 ft | 429 kts | 129° |
| 2026-04-26 06:49 | 48.12905 | 5.46323 | 33230 ft | 429 kts | 129° |
| 2026-04-26 06:50 | 48.09201 | 5.53260 | 33232 ft | 429 kts | 129° |
| 2026-04-26 06:50 | 48.05475 | 5.60211 | 33226 ft | 427 kts | 130° |
| 2026-04-26 06:51 | 48.01750 | 5.67136 | 33227 ft | 426 kts | 130° |
| 2026-04-26 06:51 | 47.96179 | 5.77440 | 33219 ft | 426 kts | 130° |
| 2026-04-26 06:52 | 47.92540 | 5.84397 | 33213 ft | 426 kts | 123° |
| 2026-04-26 06:52 | 47.90191 | 5.92459 | 33200 ft | 426 kts | 104° |
| 2026-04-26 06:53 | 47.89093 | 5.99622 | 33188 ft | 427 kts | 103° |
| 2026-04-26 06:53 | 47.88422 | 6.03961 | 32817 ft | 423 kts | 104° |
| 2026-04-26 06:53 | 47.87765 | 6.08160 | 32332 ft | 419 kts | 104° |
| 2026-04-26 06:54 | 47.87100 | 6.12383 | 31837 ft | 417 kts | 104° |
| 2026-04-26 06:54 | 47.86435 | 6.16580 | 31352 ft | 414 kts | 104° |
| 2026-04-26 06:54 | 47.85777 | 6.20739 | 30875 ft | 412 kts | 104° |
| 2026-04-26 06:54 | 47.85122 | 6.24889 | 30407 ft | 410 kts | 104° |
| 2026-04-26 06:55 | 47.84471 | 6.29013 | 29899 ft | 408 kts | 104° |
| 2026-04-26 06:55 | 47.83829 | 6.33064 | 29402 ft | 405 kts | 104° |
| 2026-04-26 06:55 | 47.83183 | 6.37128 | 28944 ft | 401 kts | 105° |
| 2026-04-26 06:55 | 47.82544 | 6.41151 | 28496 ft | 398 kts | 104° |
| 2026-04-26 06:56 | 47.81908 | 6.45144 | 28049 ft | 395 kts | 104° |
| 2026-04-26 06:56 | 47.81272 | 6.49114 | 27603 ft | 392 kts | 104° |
| 2026-04-26 06:56 | 47.80642 | 6.53041 | 27166 ft | 389 kts | 104° |
| 2026-04-26 06:56 | 47.80015 | 6.56946 | 26719 ft | 386 kts | 104° |
| 2026-04-26 06:57 | 47.79393 | 6.60818 | 26287 ft | 383 kts | 104° |
| 2026-04-26 06:57 | 47.78772 | 6.64661 | 25861 ft | 381 kts | 104° |
| 2026-04-26 06:57 | 47.78153 | 6.68475 | 25435 ft | 378 kts | 104° |
| 2026-04-26 06:57 | 47.77539 | 6.72256 | 25023 ft | 375 kts | 104° |
| 2026-04-26 06:58 | 47.76934 | 6.75971 | 24604 ft | 373 kts | 104° |
| 2026-04-26 06:58 | 47.76325 | 6.79712 | 24173 ft | 371 kts | 104° |
| 2026-04-26 06:58 | 47.75717 | 6.83431 | 23742 ft | 369 kts | 104° |
| 2026-04-26 06:58 | 47.75108 | 6.87123 | 23275 ft | 367 kts | 104° |
| 2026-04-26 06:59 | 47.74502 | 6.90789 | 22820 ft | 364 kts | 104° |
| 2026-04-26 06:59 | 47.73901 | 6.94432 | 22397 ft | 361 kts | 104° |
| 2026-04-26 06:59 | 47.73303 | 6.98049 | 21989 ft | 358 kts | 104° |
| 2026-04-26 06:59 | 47.72710 | 7.01629 | 21576 ft | 356 kts | 104° |
| 2026-04-26 07:00 | 47.72119 | 7.05197 | 21165 ft | 353 kts | 104° |
| 2026-04-26 07:00 | 47.71534 | 7.08729 | 20764 ft | 351 kts | 104° |
| 2026-04-26 07:00 | 47.70950 | 7.12247 | 20385 ft | 349 kts | 104° |
| 2026-04-26 07:00 | 47.70377 | 7.15684 | 20057 ft | 347 kts | 104° |
| 2026-04-26 07:01 | 47.69790 | 7.19199 | 19661 ft | 345 kts | 104° |
| 2026-04-26 07:01 | 47.69163 | 7.22570 | 19302 ft | 343 kts | 106° |
| 2026-04-26 07:01 | 47.68463 | 7.25944 | 18947 ft | 341 kts | 107° |
| 2026-04-26 07:01 | 47.67733 | 7.29296 | 18595 ft | 339 kts | 107° |
| 2026-04-26 07:02 | 47.67004 | 7.32612 | 18201 ft | 337 kts | 107° |
| 2026-04-26 07:02 | 47.66284 | 7.35906 | 17811 ft | 335 kts | 107° |
| 2026-04-26 07:02 | 47.65575 | 7.39182 | 17431 ft | 333 kts | 107° |
| 2026-04-26 07:02 | 47.64873 | 7.42450 | 17054 ft | 331 kts | 107° |
| 2026-04-26 07:03 | 47.64182 | 7.45688 | 16690 ft | 329 kts | 107° |
| 2026-04-26 07:03 | 47.63497 | 7.48906 | 16335 ft | 327 kts | 107° |
| 2026-04-26 07:03 | 47.62802 | 7.52113 | 15984 ft | 325 kts | 108° |
| 2026-04-26 07:03 | 47.62077 | 7.55281 | 15650 ft | 323 kts | 108° |
| 2026-04-26 07:04 | 47.61346 | 7.58382 | 15299 ft | 323 kts | 109° |
| 2026-04-26 07:04 | 47.60601 | 7.61512 | 14957 ft | 321 kts | 109° |
| 2026-04-26 07:04 | 47.59857 | 7.64632 | 14651 ft | 319 kts | 109° |
| 2026-04-26 07:04 | 47.59124 | 7.67725 | 14328 ft | 318 kts | 108° |
| 2026-04-26 07:05 | 47.58399 | 7.70805 | 14006 ft | 316 kts | 108° |
| 2026-04-26 07:05 | 47.57677 | 7.73872 | 13643 ft | 315 kts | 108° |
| 2026-04-26 07:05 | 47.56958 | 7.76922 | 13287 ft | 312 kts | 108° |
| 2026-04-26 07:05 | 47.56243 | 7.79955 | 12944 ft | 310 kts | 108° |
| 2026-04-26 07:06 | 47.55534 | 7.82969 | 12583 ft | 309 kts | 108° |
| 2026-04-26 07:06 | 47.54836 | 7.85924 | 12235 ft | 307 kts | 108° |
| 2026-04-26 07:06 | 47.54135 | 7.88892 | 11895 ft | 305 kts | 108° |
| 2026-04-26 07:06 | 47.53434 | 7.91850 | 11561 ft | 303 kts | 108° |
| 2026-04-26 07:07 | 47.52738 | 7.94785 | 11213 ft | 301 kts | 108° |
| 2026-04-26 07:07 | 47.52045 | 7.97698 | 10853 ft | 300 kts | 107° |
| 2026-04-26 07:07 | 47.51365 | 8.00603 | 10510 ft | 297 kts | 104° |
| 2026-04-26 07:07 | 47.51071 | 8.03590 | 10195 ft | 291 kts | 87° |
| 2026-04-26 07:08 | 47.51344 | 8.06519 | 9814 ft | 286 kts | 72° |
| 2026-04-26 07:08 | 47.52091 | 8.09230 | 9438 ft | 283 kts | 64° |
| 2026-04-26 07:08 | 47.52896 | 8.11835 | 9049 ft | 281 kts | 64° |
| 2026-04-26 07:08 | 47.53697 | 8.14466 | 8667 ft | 280 kts | 64° |
| 2026-04-26 07:09 | 47.54498 | 8.17115 | 8299 ft | 277 kts | 65° |
| 2026-04-26 07:09 | 47.55279 | 8.19707 | 8226 ft | 275 kts | 65° |
| 2026-04-26 07:09 | 47.56035 | 8.22215 | 8081 ft | 264 kts | 65° |
| 2026-04-26 07:09 | 47.56773 | 8.24670 | 7808 ft | 260 kts | 64° |
| 2026-04-26 07:10 | 47.58953 | 8.31911 | 6777 ft | 253 kts | 65° |
| 2026-04-26 07:11 | 47.59814 | 8.36808 | 6058 ft | 248 kts | 104° |
| 2026-04-26 07:11 | 47.58920 | 8.38945 | 5708 ft | 246 kts | 137° |
| 2026-04-26 07:11 | 47.57620 | 8.40579 | 5355 ft | 244 kts | 137° |
| 2026-04-26 07:11 | 47.56394 | 8.42239 | 5010 ft | 243 kts | 135° |
| 2026-04-26 07:12 | 47.55162 | 8.43966 | 4357 ft | 241 kts | 134° |
| 2026-04-26 07:12 | 47.53990 | 8.45685 | 3334 ft | 233 kts | 133° |
| 2026-04-26 07:12 | 47.52838 | 8.47256 | 2656 ft | 217 kts | 135° |
| 2026-04-26 07:12 | 47.51770 | 8.48694 | 2315 ft | 194 kts | 135° |
| 2026-04-26 07:13 | 47.50856 | 8.49966 | 2195 ft | 173 kts | 134° |
| 2026-04-26 07:13 | 47.50036 | 8.51140 | 1987 ft | 156 kts | 136° |
| 2026-04-26 07:13 | 47.49256 | 8.52193 | 1714 ft | 148 kts | 137° |
| 2026-04-26 07:13 | 47.48510 | 8.53201 | 1516 ft | 143 kts | 136° |
| 2026-04-26 07:14 | 47.47783 | 8.54187 | 1395 ft | 135 kts | 137° |
| 2026-04-26 07:14 | 47.47272 | 8.54892 | 1399 ft | 57 kts | 137° |
| 2026-04-26 07:14 | 47.47053 | 8.55190 | 1392 ft | 41 kts | 137° |
| 2026-04-26 07:14 | 47.46850 | 8.55469 | 1401 ft | 39 kts | 137° |
| 2026-04-26 07:15 | 47.46647 | 8.55742 | 1395 ft | 40 kts | 139° |
| 2026-04-26 07:15 | 47.46446 | 8.55932 | 1399 ft | 17 kts | 160° |
| 2026-04-26 07:15 | 47.46341 | 8.55970 | 1400 ft | 14 kts | 168° |
| 2026-04-26 07:15 | 47.46252 | 8.55998 | 1401 ft | 12 kts | 168° |
| 2026-04-26 07:16 | 47.46181 | 8.56004 | 1399 ft | 10 kts | 185° |
| 2026-04-26 07:16 | 47.46073 | 8.55986 | 1401 ft | 18 kts | 187° |
| 2026-04-26 07:16 | 47.45946 | 8.55960 | 1402 ft | 19 kts | 196° |
| 2026-04-26 07:16 | 47.45810 | 8.55883 | 1398 ft | 22 kts | 193° |
| 2026-04-26 07:17 | 47.45663 | 8.55849 | 1406 ft | 18 kts | 215° |
| 2026-04-26 07:17 | 47.45650 | 8.55674 | 1397 ft | 18 kts | 275° |
| 2026-04-26 07:17 | 47.45665 | 8.55480 | 1397 ft | 19 kts | 276° |
| 2026-04-26 07:17 | 47.45628 | 8.55340 | 1397 ft | 16 kts | 174° |
| 2026-04-26 07:18 | 47.45530 | 8.55403 | 1397 ft | 15 kts | 155° |
| 2026-04-26 07:18 | 47.45438 | 8.55465 | 1402 ft | 16 kts | 155° |
| 2026-04-26 07:18 | 47.45335 | 8.55537 | 1401 ft | 16 kts | 155° |
| 2026-04-26 07:18 | 47.45237 | 8.55583 | 1397 ft | 14 kts | 162° |
| 2026-04-26 07:19 | 47.45140 | 8.55644 | 1404 ft | 18 kts | 154° |
| 2026-04-26 07:19 | 47.45027 | 8.55719 | 1397 ft | 18 kts | 155° |
| 2026-04-26 07:19 | 47.44950 | 8.55855 | 1399 ft | 19 kts | 97° |
| 2026-04-26 07:19 | 47.44872 | 8.55981 | 1398 ft | 18 kts | 154° |
| 2026-04-26 07:20 | 47.44758 | 8.56061 | 1401 ft | 19 kts | 155° |
| 2026-04-26 07:20 | 47.44635 | 8.56142 | 1406 ft | 20 kts | 156° |
| 2026-04-26 07:20 | 47.44514 | 8.56234 | 1406 ft | 18 kts | 137° |
| 2026-04-26 07:20 | 47.44536 | 8.56397 | 1402 ft | 16 kts | 64° |
| 2026-04-26 07:21 | 47.44586 | 8.56490 | 1397 ft | 10 kts | 359° |
| 2026-04-26 07:21 | 47.44629 | 8.56461 | 1399 ft | 5 kts | 334° |
| 2026-04-26 07:21 | 47.44631 | 8.56460 | 1399 ft | 0 kts | 334° |